Time;durP1;ratioP1;P1;durP2;ratioP2;P2;SDS_P1;SDS_P2;PMS_P1;PMS_P2;Temp;Humidity;BMP_temperature;BMP_pressure;BME280_temperature;BME280_humidity;BME280_pressure;Samples;Min_cycle;Max_cycle;Signal;HPM_P1;HPM_P2
2022/12/05 00:02:21;;;;;;;61.05;30.60;;;3.40;99.90;;;;;;5032383;28;20021;-73
2022/12/05 00:04:47;;;;;;;64.43;30.42;;;3.40;99.90;;;;;;5033228;28;20044;-75
2022/12/05 00:07:12;;;;;;;67.32;31.17;;;3.50;99.90;;;;;;5033359;28;20112;-74
2022/12/05 00:09:38;;;;;;;57.50;30.15;;;3.50;99.90;;;;;;5032650;28;20037;-76
2022/12/05 00:12:03;;;;;;;66.95;29.23;;;3.50;99.90;;;;;;5032480;28;20032;-75
2022/12/05 00:14:29;;;;;;;62.67;30.25;;;3.50;99.90;;;;;;5032563;28;20021;-74
2022/12/05 00:16:54;;;;;;;63.47;27.75;;;3.60;99.90;;;;;;5031935;28;20025;-74
2022/12/05 00:19:21;;;;;;;56.92;28.13;;;3.60;99.90;;;;;;5032612;28;20024;-74
2022/12/05 00:21:47;;;;;;;56.75;29.23;;;3.60;99.90;;;;;;5033004;28;20048;-74
2022/12/05 00:24:14;;;;;;;68.47;28.58;;;3.60;99.90;;;;;;5031980;28;20026;-74
2022/12/05 00:26:43;;;;;;;55.95;29.17;;;3.60;99.90;;;;;;5033003;28;20087;-76
2022/12/05 00:29:09;;;;;;;59.78;29.17;;;3.60;99.90;;;;;;5032314;28;20504;-73
2022/12/05 00:31:34;;;;;;;58.92;28.88;;;3.60;99.90;;;;;;5032481;28;20109;-75
2022/12/05 00:34:03;;;;;;;57.60;30.05;;;3.60;99.90;;;;;;5032832;28;20033;-75
2022/12/05 00:36:31;;;;;;;57.60;29.10;;;3.60;99.90;;;;;;5032738;28;20043;-75
2022/12/05 00:39:03;;;;;;;57.50;28.13;;;2.90;99.90;;;;;;5031613;28;20025;-74
2022/12/05 00:41:29;;;;;;;56.03;28.10;;;3.60;99.90;;;;;;5019402;28;20029;-75
2022/12/05 00:43:59;;;;;;;53.10;27.25;;;3.70;99.90;;;;;;5032036;28;20092;-75
2022/12/05 00:46:27;;;;;;;60.35;28.60;;;3.70;99.90;;;;;;5032452;28;20084;-74
2022/12/05 00:48:53;;;;;;;56.72;27.33;;;3.70;99.90;;;;;;5021070;28;20064;-74
2022/12/05 00:51:27;;;;;;;62.28;28.92;;;3.60;99.90;;;;;;5029891;28;20512;-74
2022/12/05 00:53:53;;;;;;;53.05;25.48;;;3.70;99.90;;;;;;5032464;28;20021;-74
2022/12/05 00:56:21;;;;;;;55.85;26.77;;;3.70;99.90;;;;;;5032351;28;20033;-75
2022/12/05 00:58:53;;;;;;;58.22;28.15;;;3.60;99.90;;;;;;5031840;28;20508;-75
2022/12/05 01:01:24;;;;;;;55.28;26.98;;;3.60;99.90;;;;;;5031986;28;20539;-75
2022/12/05 01:03:52;;;;;;;58.72;27.50;;;3.70;99.90;;;;;;5031844;28;20033;-74
2022/12/05 01:06:19;;;;;;;51.80;27.08;;;3.70;99.90;;;;;;5035915;28;20029;-75
2022/12/05 01:08:44;;;;;;;51.20;26.45;;;3.70;99.90;;;;;;5037439;28;20022;-74
2022/12/05 01:11:13;;;;;;;53.05;26.05;;;3.70;99.90;;;;;;5036978;28;20449;-74
2022/12/05 01:13:39;;;;;;;59.22;28.60;;;3.70;99.90;;;;;;5036355;28;20480;-74
2022/12/05 01:16:05;;;;;;;58.38;29.33;;;3.60;99.90;;;;;;5037253;28;20048;-74
2022/12/05 01:18:31;;;;;;;56.70;28.17;;;3.70;99.90;;;;;;5022911;28;20021;-74
2022/12/05 01:20:56;;;;;;;59.67;28.33;;;3.60;99.90;;;;;;5035295;28;20116;-74
2022/12/05 01:23:22;;;;;;;61.25;30.55;;;3.70;99.90;;;;;;5036656;28;20079;-74
2022/12/05 01:25:50;;;;;;;55.35;28.98;;;3.70;99.90;;;;;;5035086;28;20087;-75
2022/12/05 01:28:17;;;;;;;55.95;26.92;;;3.70;99.90;;;;;;5045853;28;20166;-74
2022/12/05 01:30:45;;;;;;;58.50;29.23;;;3.80;99.90;;;;;;5039972;28;20025;-75
2022/12/05 01:33:11;;;;;;;56.00;27.60;;;3.70;99.90;;;;;;5035116;28;20508;-75
2022/12/05 01:35:39;;;;;;;56.25;27.33;;;3.70;99.90;;;;;;5035748;28;20044;-74
2022/12/05 01:38:05;;;;;;;55.47;28.00;;;3.80;99.90;;;;;;5035931;28;20370;-75
2022/12/05 01:40:37;;;;;;;56.40;28.00;;;3.80;99.90;;;;;;5036161;28;20025;-75
2022/12/05 01:43:05;;;;;;;61.15;28.55;;;3.70;99.90;;;;;;5035988;28;20024;-75
2022/12/05 01:45:37;;;;;;;51.08;27.48;;;3.70;99.90;;;;;;5036452;28;20021;-74
2022/12/05 01:48:08;;;;;;;55.88;27.30;;;3.70;99.90;;;;;;5035407;28;20536;-76
2022/12/05 01:50:34;;;;;;;;;;;3.70;99.90;;;;;;5036958;28;20102;-75
2022/12/05 01:53:01;;;;;;;53.10;26.48;;;3.70;99.90;;;;;;5036010;28;19905;-74
2022/12/05 01:55:27;;;;;;;54.13;27.27;;;3.70;99.90;;;;;;5035389;28;20076;-74
2022/12/05 01:57:52;;;;;;;62.85;28.63;;;3.70;99.90;;;;;;5034273;28;20036;-74
2022/12/05 02:00:19;;;;;;;58.20;28.02;;;3.70;99.90;;;;;;5024148;28;20132;-75
2022/12/05 02:03:07;;;;;;;58.97;28.05;;;3.80;99.90;;;;;;5028994;28;20025;-75
2022/12/05 02:05:35;;;;;;;59.13;27.60;;;3.70;99.90;;;;;;5052631;28;20377;-75
2022/12/05 02:08:06;;;;;;;53.75;26.25;;;3.70;99.90;;;;;;5054226;28;20428;-75
2022/12/05 02:10:51;;;;;;;55.13;28.52;;;3.80;99.90;;;;;;5054815;28;20052;-75
2022/12/05 02:13:57;;;;;;;63.42;29.45;;;3.80;99.90;;;;;;5056959;28;20481;-75
2022/12/05 02:16:48;;;;;;;58.30;26.27;;;3.70;99.90;;;;;;5054174;28;20377;-75
2022/12/05 02:19:34;;;;;;;56.50;27.55;;;3.80;99.90;;;;;;5055119;28;20029;-75
2022/12/05 02:22:11;;;;;;;54.97;28.00;;;3.80;99.90;;;;;;5055040;28;20032;-75
2022/12/05 02:25:04;;;;;;;54.50;27.20;;;3.80;99.90;;;;;;5054990;28;20032;-74
2022/12/05 02:28:02;;;;;;;58.22;26.00;;;3.90;99.90;;;;;;5031405;28;20108;-74
2022/12/05 02:30:39;;;;;;;53.00;27.02;;;3.90;99.90;;;;;;5050840;28;20493;-75
2022/12/05 02:33:26;;;;;;;56.53;27.08;;;3.90;99.90;;;;;;5047743;28;20155;-74
2022/12/05 02:36:13;;;;;;;54.22;26.90;;;3.80;99.90;;;;;;5055208;28;20032;-75
2022/12/05 02:38:43;;;;;;;54.85;27.40;;;3.90;99.90;;;;;;5054941;28;20049;-75
2022/12/05 02:41:24;;;;;;;57.70;27.45;;;3.90;99.90;;;;;;5054016;28;20104;-76
2022/12/05 02:44:04;;;;;;;49.78;24.90;;;3.80;99.90;;;;;;5053880;28;20392;-74
2022/12/05 02:46:32;;;;;;;53.60;26.83;;;3.90;99.90;;;;;;5054605;28;20028;-75
2022/12/05 02:49:03;;;;;;;62.67;27.85;;;3.80;99.90;;;;;;5054194;28;20070;-76
2022/12/05 02:51:33;;;;;;;54.10;27.15;;;3.90;99.90;;;;;;5053874;28;20025;-76
2022/12/05 02:54:04;;;;;;;53.17;25.83;;;3.90;99.90;;;;;;5054428;28;20033;-75
2022/12/05 02:56:33;;;;;;;59.30;27.92;;;3.90;99.90;;;;;;5054249;28;20488;-75
2022/12/05 02:59:00;;;;;;;48.65;25.05;;;3.90;99.90;;;;;;5053262;28;20017;-74
2022/12/05 03:01:28;;;;;;;56.03;26.95;;;3.80;99.90;;;;;;5054319;28;20032;-75
2022/12/05 03:03:55;;;;;;;56.63;26.85;;;3.90;99.90;;;;;;5054375;28;20362;-74
2022/12/05 03:06:27;;;;;;;51.33;26.02;;;3.90;99.90;;;;;;5053763;28;20095;-74
2022/12/05 03:09:05;;;;;;;53.92;27.30;;;3.90;99.90;;;;;;5054175;28;20035;-75
2022/12/05 03:11:55;;;;;;;52.50;26.67;;;3.90;99.90;;;;;;5053470;28;20515;-74
2022/12/05 03:14:26;;;;;;;55.72;27.15;;;3.90;99.90;;;;;;5052888;28;20107;-74
2022/12/05 03:16:56;;;;;;;56.80;26.92;;;3.90;99.90;;;;;;5027191;28;20485;-75
2022/12/05 03:19:40;;;;;;;57.83;28.35;;;3.90;99.90;;;;;;5053302;28;20021;-74
2022/12/05 03:22:30;;;;;;;49.25;25.40;;;3.90;99.90;;;;;;5053926;28;20554;-75
2022/12/05 03:24:59;;;;;;;48.97;24.95;;;4.00;99.90;;;;;;5053853;28;20023;-74
2022/12/05 03:27:48;;;;;;;52.53;25.00;;;4.00;99.90;;;;;;5053434;28;20032;-75
2022/12/05 03:30:16;;;;;;;51.40;25.98;;;4.00;99.90;;;;;;5053898;28;20079;-75
2022/12/05 03:33:18;;;;;;;51.78;26.20;;;4.00;99.90;;;;;;5053849;28;20570;-75
2022/12/05 03:35:47;;;;;;;54.38;25.00;;;4.00;99.90;;;;;;5054157;28;20045;-75
2022/12/05 03:38:18;;;;;;;54.17;27.40;;;4.00;99.90;;;;;;5052766;28;20032;-75
2022/12/05 03:41:01;;;;;;;53.70;26.02;;;4.10;99.90;;;;;;5045559;28;20041;-74
2022/12/05 03:43:47;;;;;;;53.40;25.88;;;4.00;99.90;;;;;;5048784;28;20107;-74
2022/12/05 03:46:23;;;;;;;59.70;26.10;;;4.00;99.90;;;;;;5053426;28;20028;-74
2022/12/05 03:48:48;;;;;;;51.60;26.40;;;4.00;99.90;;;;;;5052632;28;20104;-75
2022/12/05 03:51:16;;;;;;;53.63;26.63;;;4.00;99.90;;;;;;5052958;28;20117;-74
2022/12/05 03:53:51;;;;;;;51.65;26.25;;;4.00;99.90;;;;;;5052662;28;20108;-74
2022/12/05 03:56:37;;;;;;;54.88;27.05;;;4.00;99.90;;;;;;5053629;28;20029;-75
2022/12/05 03:59:21;;;;;;;53.90;25.88;;;4.00;99.90;;;;;;5052808;28;20040;-75
2022/12/05 04:01:48;;;;;;;50.58;27.10;;;4.10;99.90;;;;;;5052478;28;20044;-75
2022/12/05 04:04:22;;;;;;;52.63;26.38;;;4.00;99.90;;;;;;5053109;28;20488;-75
2022/12/05 04:06:52;;;;;;;59.90;28.63;;;4.00;99.90;;;;;;5052791;28;20047;-75
2022/12/05 04:09:46;;;;;;;55.88;27.40;;;4.00;99.90;;;;;;5052185;28;20381;-75
2022/12/05 04:12:22;;;;;;;58.08;27.02;;;4.00;99.90;;;;;;5052446;28;20029;-74
2022/12/05 04:14:52;;;;;;;59.10;26.17;;;4.00;99.90;;;;;;5053030;28;20024;-75
2022/12/05 04:17:25;;;;;;;55.25;26.58;;;4.00;99.90;;;;;;5053537;28;20033;-74
2022/12/05 04:23:00;;;;;;;50.45;26.00;;;4.00;99.90;;;;;;5031103;28;20037;-74
2022/12/05 04:25:33;;;;;;;50.28;26.00;;;4.00;99.90;;;;;;5052597;28;20392;-75
2022/12/05 04:28:16;;;;;;;55.67;26.30;;;4.10;99.90;;;;;;5051565;28;20041;-74
2022/12/05 04:31:04;;;;;;;56.20;27.88;;;4.00;99.90;;;;;;5051683;28;20402;-75
2022/12/05 04:33:59;;;;;;;54.58;27.38;;;4.00;99.90;;;;;;5052669;28;20065;-75
2022/12/05 04:36:41;;;;;;;54.25;25.95;;;4.00;99.90;;;;;;5052377;28;20079;-75
2022/12/05 04:39:11;;;;;;;49.78;25.25;;;4.00;99.90;;;;;;5029452;28;20017;-74
2022/12/05 04:41:43;;;;;;;;;;;4.00;99.90;;;;;;5059581;28;20033;-75
2022/12/05 04:44:14;;;;;;;52.75;25.20;;;4.10;99.90;;;;;;5058520;28;19904;-75
2022/12/05 04:46:42;;;;;;;47.83;24.65;;;4.00;99.90;;;;;;5059376;28;20376;-75
2022/12/05 04:49:11;;;;;;;49.67;25.45;;;4.10;99.90;;;;;;5058882;28;20084;-75
2022/12/05 04:51:39;;;;;;;55.25;24.77;;;4.10;99.90;;;;;;5045805;28;20029;-74
2022/12/05 04:54:19;;;;;;;48.92;25.08;;;4.10;99.90;;;;;;5057909;28;20108;-75
2022/12/05 04:56:47;;;;;;;49.83;25.75;;;4.10;99.90;;;;;;5059155;28;20454;-75
2022/12/05 04:59:13;;;;;;;54.65;25.88;;;4.10;99.90;;;;;;5058492;28;20365;-74
2022/12/05 05:01:48;;;;;;;49.22;25.92;;;4.10;99.90;;;;;;5059476;28;20116;-74
2022/12/05 05:04:23;;;;;;;50.67;26.42;;;4.10;99.90;;;;;;5058416;28;20063;-74
2022/12/05 05:06:49;;;;;;;56.22;27.63;;;4.10;99.90;;;;;;5059379;28;20033;-75
2022/12/05 05:09:14;;;;;;;46.42;24.48;;;4.10;99.90;;;;;;5059236;28;20025;-75
2022/12/05 05:11:43;;;;;;;51.58;24.88;;;4.10;99.90;;;;;;5051464;28;20032;-75
2022/12/05 05:14:08;;;;;;;46.13;24.83;;;4.10;99.90;;;;;;5051108;28;20056;-75
2022/12/05 05:16:37;;;;;;;49.22;24.45;;;4.10;99.90;;;;;;5058893;28;20488;-74
2022/12/05 05:19:04;;;;;;;49.42;24.58;;;4.20;99.90;;;;;;5054757;28;20497;-75
2022/12/05 05:21:35;;;;;;;51.92;26.42;;;4.20;99.90;;;;;;5055413;28;20041;-75
2022/12/05 05:24:01;;;;;;;48.75;24.15;;;4.20;99.90;;;;;;5058859;28;20021;-74
2022/12/05 05:26:28;;;;;;;49.58;25.52;;;4.20;99.90;;;;;;5058441;28;20499;-74
2022/12/05 05:28:55;;;;;;;47.20;24.80;;;4.10;99.90;;;;;;5058586;28;20069;-74
2022/12/05 05:31:21;;;;;;;49.03;25.05;;;4.20;99.90;;;;;;5059531;28;20029;-74
2022/12/05 05:33:51;;;;;;;47.03;24.17;;;4.20;99.90;;;;;;5058364;28;20029;-75
2022/12/05 05:36:17;;;;;;;51.92;26.33;;;4.10;99.90;;;;;;5059247;28;20040;-75
2022/12/05 05:38:49;;;;;;;49.33;23.60;;;4.20;99.90;;;;;;5058864;28;20124;-75
2022/12/05 05:41:26;;;;;;;52.03;25.67;;;4.20;99.90;;;;;;5058446;28;20029;-76
2022/12/05 05:43:53;;;;;;;44.35;24.58;;;4.20;99.90;;;;;;5058485;28;20105;-75
2022/12/05 05:46:21;;;;;;;48.42;24.55;;;4.20;99.90;;;;;;5057725;28;20033;-76
2022/12/05 05:48:46;;;;;;;47.80;24.45;;;4.20;99.90;;;;;;5058668;28;20025;-75
2022/12/05 05:51:13;;;;;;;45.45;22.58;;;4.20;99.90;;;;;;5037224;28;20030;-74
2022/12/05 05:53:39;;;;;;;53.47;25.20;;;4.20;99.90;;;;;;5032132;28;20024;-75
2022/12/05 05:56:08;;;;;;;51.92;24.88;;;4.20;99.90;;;;;;5035587;28;20393;-77
2022/12/05 05:58:35;;;;;;;43.25;23.20;;;4.20;99.90;;;;;;5033652;28;20108;-76
2022/12/05 06:01:09;;;;;;;44.05;24.13;;;4.30;99.90;;;;;;5032704;28;20468;-75
2022/12/05 06:03:35;;;;;;;49.80;25.50;;;4.30;99.90;;;;;;5031871;28;20357;-75
2022/12/05 06:06:03;;;;;;;51.03;24.85;;;4.30;99.90;;;;;;5033210;28;20025;-76
2022/12/05 06:08:34;;;;;;;49.70;25.65;;;4.30;99.90;;;;;;5031548;28;20363;-75
2022/12/05 06:11:07;;;;;;;52.08;25.73;;;4.30;99.90;;;;;;5031827;28;20028;-74
2022/12/05 06:13:33;;;;;;;42.38;24.08;;;4.30;99.90;;;;;;5035623;28;20029;-76
2022/12/05 06:16:00;;;;;;;50.83;25.55;;;4.30;99.90;;;;;;5035993;28;20048;-76
2022/12/05 06:18:25;;;;;;;49.80;24.73;;;4.30;99.90;;;;;;5034782;28;20040;-75
2022/12/05 06:20:57;;;;;;;44.65;25.05;;;4.30;99.90;;;;;;5035161;28;20537;-76
2022/12/05 06:23:24;;;;;;;49.83;24.58;;;4.30;99.90;;;;;;5037801;28;20112;-75
2022/12/05 06:25:55;;;;;;;49.13;25.33;;;4.30;99.90;;;;;;5032795;28;20080;-75
2022/12/05 06:28:24;;;;;;;53.63;24.98;;;4.30;99.90;;;;;;5034626;28;20028;-74
2022/12/05 06:30:50;;;;;;;51.90;25.90;;;4.30;99.90;;;;;;5035084;28;20580;-75
2022/12/05 06:33:16;;;;;;;45.60;23.77;;;4.40;99.90;;;;;;5037566;28;20037;-74
2022/12/05 06:35:42;;;;;;;46.95;24.70;;;4.40;99.90;;;;;;5034784;28;20087;-76
2022/12/05 06:38:09;;;;;;;48.38;25.10;;;4.40;99.90;;;;;;5034228;28;20029;-76
2022/12/05 06:40:38;;;;;;;52.40;25.88;;;4.40;99.90;;;;;;5033012;28;20417;-75
2022/12/05 06:43:04;;;;;;;48.88;24.00;;;4.40;99.90;;;;;;5035032;28;20485;-75
2022/12/05 06:45:30;;;;;;;50.50;25.25;;;4.40;99.90;;;;;;5032380;28;20029;-75
2022/12/05 06:47:55;;;;;;;51.17;24.88;;;4.50;99.90;;;;;;5032182;28;20067;-75
2022/12/05 06:50:21;;;;;;;45.88;24.38;;;4.50;99.90;;;;;;5032146;28;20493;-75
2022/12/05 06:52:46;;;;;;;55.45;25.40;;;4.50;99.90;;;;;;5032802;28;20060;-76
2022/12/05 06:55:12;;;;;;;52.33;25.67;;;4.50;99.90;;;;;;5032624;28;20497;-76
2022/12/05 06:57:37;;;;;;;49.35;24.45;;;4.50;99.90;;;;;;5034275;28;20568;-76
2022/12/05 07:02:52;;;;;;;55.95;25.13;;;4.50;99.90;;;;;;5015647;28;20397;-75
2022/12/05 07:05:18;;;;;;;48.10;24.55;;;4.50;99.90;;;;;;5013365;28;20171;-75
2022/12/05 07:07:44;;;;;;;48.70;24.70;;;4.60;99.90;;;;;;5032303;28;20491;-74
2022/12/05 07:10:09;;;;;;;55.35;25.13;;;4.60;99.90;;;;;;5032992;28;20139;-76
2022/12/05 07:12:35;;;;;;;50.33;25.95;;;4.60;99.90;;;;;;5035229;28;20029;-75
2022/12/05 07:15:01;;;;;;;51.47;24.88;;;4.60;99.90;;;;;;5035208;28;20021;-74
2022/12/05 07:17:26;;;;;;;50.97;24.13;;;4.60;99.90;;;;;;5032980;28;20036;-76
2022/12/05 07:19:52;;;;;;;53.60;25.52;;;4.70;99.90;;;;;;5032448;28;20014;-75
2022/12/05 07:22:20;;;;;;;55.08;25.65;;;4.70;99.90;;;;;;5033002;28;20033;-76
2022/12/05 07:24:46;;;;;;;55.13;25.65;;;4.70;99.90;;;;;;5032027;28;20018;-76
2022/12/05 07:27:13;;;;;;;50.70;24.20;;;4.70;99.90;;;;;;5032580;28;20028;-75
2022/12/05 07:29:39;;;;;;;49.05;23.88;;;4.80;99.90;;;;;;5028729;28;20402;-75
2022/12/05 07:32:05;;;;;;;50.55;24.70;;;4.70;99.90;;;;;;5037332;28;20017;-75
2022/12/05 07:34:31;;;;;;;50.53;24.58;;;4.80;99.90;;;;;;5032640;28;20029;-76
2022/12/05 07:36:56;;;;;;;58.78;24.52;;;4.80;99.90;;;;;;5032639;28;20037;-76
2022/12/05 07:39:22;;;;;;;50.42;24.13;;;4.70;99.90;;;;;;5029399;28;20029;-77
2022/12/05 07:41:47;;;;;;;50.22;24.15;;;4.70;99.90;;;;;;5032037;28;20025;-75
2022/12/05 07:44:13;;;;;;;44.67;22.92;;;4.80;99.90;;;;;;5031768;28;20045;-73
2022/12/05 07:46:41;;;;;;;59.22;24.67;;;5.30;99.90;;;;;;5031850;28;20017;-75
2022/12/05 07:49:07;;;;;;;53.72;23.83;;;5.50;99.90;;;;;;5030435;28;20021;-74
2022/12/05 07:51:34;;;;;;;51.80;23.77;;;4.80;99.90;;;;;;5033526;28;20028;-74
2022/12/05 07:54:00;;;;;;;49.55;24.77;;;4.80;99.90;;;;;;5032094;28;20025;-74
2022/12/05 07:56:25;;;;;;;51.72;24.70;;;4.80;99.90;;;;;;5032837;28;20037;-74
2022/12/05 07:58:51;;;;;;;50.90;24.70;;;4.80;99.90;;;;;;5032843;28;20511;-75
2022/12/05 08:01:25;;;;;;;46.38;22.70;;;4.80;99.90;;;;;;5033715;28;20017;-75
2022/12/05 08:03:55;;;;;;;42.70;21.85;;;4.80;99.90;;;;;;5032579;28;20029;-73
2022/12/05 08:06:25;;;;;;;47.38;24.13;;;4.90;99.90;;;;;;5032916;28;20068;-75
2022/12/05 08:08:50;;;;;;;47.65;22.75;;;4.90;99.90;;;;;;5031455;28;20056;-75
2022/12/05 08:11:18;;;;;;;36.65;19.23;;;4.90;99.90;;;;;;5035734;28;20430;-76
2022/12/05 08:13:45;;;;;;;46.25;22.00;;;4.90;99.90;;;;;;5034772;28;20025;-74
2022/12/05 08:16:12;;;;;;;48.03;22.73;;;4.90;99.90;;;;;;5031320;28;20042;-76
2022/12/05 08:18:38;;;;;;;48.10;21.65;;;4.90;99.90;;;;;;5034568;28;20025;-76
2022/12/05 08:21:06;;;;;;;40.33;20.58;;;4.90;99.90;;;;;;5032221;28;20128;-76
2022/12/05 08:23:33;;;;;;;36.38;19.33;;;4.90;99.90;;;;;;5034162;28;20109;-76
2022/12/05 08:26:10;;;;;;;36.70;20.38;;;5.00;99.90;;;;;;5032496;28;20044;-77
2022/12/05 08:28:36;;;;;;;39.88;19.95;;;5.00;99.90;;;;;;5032547;28;20045;-76
2022/12/05 08:31:16;;;;;;;36.63;19.70;;;5.00;99.90;;;;;;5032263;28;20033;-76
2022/12/05 08:33:42;;;;;;;33.95;19.33;;;5.00;99.90;;;;;;5032700;28;20109;-76
2022/12/05 08:36:14;;;;;;;38.60;19.20;;;5.70;99.90;;;;;;5031525;28;20416;-76
2022/12/05 08:38:40;;;;;;;32.60;18.50;;;5.10;99.90;;;;;;5033980;28;20397;-76
2022/12/05 08:41:09;;;;;;;33.30;17.20;;;5.20;99.90;;;;;;5029423;28;20029;-75
2022/12/05 08:43:35;;;;;;;39.30;18.27;;;5.10;99.90;;;;;;5030675;28;20033;-77
2022/12/05 08:46:01;;;;;;;25.92;17.10;;;5.10;99.90;;;;;;5020007;28;20759;-76
2022/12/05 08:48:28;;;;;;;28.10;17.13;;;5.10;99.90;;;;;;5012756;28;20036;-76
2022/12/05 08:50:54;;;;;;;27.33;17.23;;;5.20;99.90;;;;;;5031562;28;20041;-76
2022/12/05 08:53:20;;;;;;;34.03;18.40;;;5.80;99.90;;;;;;5032691;28;20018;-75
2022/12/05 08:55:45;;;;;;;28.20;17.80;;;5.20;99.90;;;;;;5032441;28;20124;-77
2022/12/05 08:58:12;;;;;;;33.67;18.80;;;5.20;99.90;;;;;;5031409;28;20406;-76
2022/12/05 09:00:38;;;;;;;26.23;17.00;;;5.20;99.90;;;;;;5032447;28;20388;-76
2022/12/05 09:03:03;;;;;;;30.33;18.30;;;5.20;99.90;;;;;;5030253;28;20022;-77
2022/12/05 09:05:29;;;;;;;25.88;15.93;;;5.30;99.90;;;;;;5032113;28;20036;-77
2022/12/05 09:07:55;;;;;;;29.65;17.30;;;5.30;99.90;;;;;;5031792;28;20014;-75
2022/12/05 09:10:21;;;;;;;29.20;18.58;;;5.30;99.90;;;;;;5032017;28;20083;-76
2022/12/05 09:12:47;;;;;;;28.80;16.23;;;5.30;99.90;;;;;;5047834;28;20059;-76
2022/12/05 09:15:15;;;;;;;28.30;17.05;;;5.30;99.90;;;;;;5052198;28;20039;-76
2022/12/05 09:17:41;;;;;;;22.98;15.48;;;5.40;99.90;;;;;;5051590;28;20057;-76
2022/12/05 09:20:07;;;;;;;29.92;16.85;;;5.40;99.90;;;;;;5051762;28;20071;-76
2022/12/05 09:22:33;;;;;;;25.10;16.45;;;5.40;99.90;;;;;;5052582;28;20032;-76
2022/12/05 09:24:59;;;;;;;26.08;16.05;;;5.40;99.90;;;;;;5050698;28;20017;-77
2022/12/05 09:27:27;;;;;;;28.05;17.30;;;5.40;99.90;;;;;;5054742;28;20040;-76
2022/12/05 09:29:52;;;;;;;26.35;17.20;;;5.40;99.90;;;;;;5055388;28;20052;-77
2022/12/05 09:32:18;;;;;;;24.10;16.23;;;5.40;99.90;;;;;;5056372;28;20029;-76
2022/12/05 09:34:44;;;;;;;23.23;16.55;;;5.50;99.90;;;;;;5042729;28;20519;-76
2022/12/05 09:37:09;;;;;;;27.45;16.02;;;5.50;99.90;;;;;;5055525;28;20128;-76
2022/12/05 09:39:35;;;;;;;27.48;16.02;;;5.50;99.90;;;;;;5055218;28;20480;-77
2022/12/05 09:42:19;;;;;;;24.73;15.55;;;5.50;99.90;;;;;;5056017;28;20017;-76
2022/12/05 09:45:16;;;;;;;24.15;16.20;;;5.50;99.90;;;;;;5056321;28;20031;-77
2022/12/05 09:48:00;;;;;;;21.58;15.57;;;5.60;99.90;;;;;;5056263;28;20059;-76
2022/12/05 09:50:32;;;;;;;22.83;14.63;;;5.60;99.90;;;;;;5056311;28;20029;-76
2022/12/05 09:53:21;;;;;;;23.92;15.20;;;5.60;99.90;;;;;;5055212;28;20052;-76
2022/12/05 09:56:08;;;;;;;20.73;15.02;;;5.60;99.90;;;;;;5041874;28;20029;-75
2022/12/05 09:58:43;;;;;;;20.80;14.00;;;5.60;99.90;;;;;;5056413;28;20441;-77
2022/12/05 10:01:46;;;;;;;20.60;15.07;;;5.70;99.90;;;;;;5055284;28;20027;-76
2022/12/05 10:04:39;;;;;;;17.42;13.00;;;5.60;99.90;;;;;;5055466;28;20083;-77
2022/12/05 10:07:28;;;;;;;17.90;13.38;;;5.60;99.90;;;;;;5054543;28;20021;-75
2022/12/05 10:10:32;;;;;;;15.07;13.02;;;5.60;99.90;;;;;;5055832;28;20029;-75
2022/12/05 10:13:06;;;;;;;18.17;13.05;;;5.60;99.90;;;;;;5055417;28;20040;-77
2022/12/05 10:15:54;;;;;;;17.98;11.85;;;5.60;99.90;;;;;;5055080;28;20064;-77
2022/12/05 10:18:33;;;;;;;15.75;11.73;;;5.60;99.90;;;;;;5055296;28;20025;-75
2022/12/05 10:21:01;;;;;;;15.73;12.55;;;5.60;99.90;;;;;;5059374;28;20031;-76
2022/12/05 10:23:50;;;;;;;18.35;11.88;;;5.60;99.90;;;;;;5055576;28;20029;-76
2022/12/05 10:26:16;;;;;;;14.75;11.90;;;5.60;99.90;;;;;;5054688;28;20041;-76
2022/12/05 10:28:59;;;;;;;13.95;10.88;;;5.60;99.90;;;;;;5054192;28;20056;-76
2022/12/05 10:31:34;;;;;;;16.52;11.82;;;5.70;99.90;;;;;;5055078;28;20512;-76
2022/12/05 10:34:25;;;;;;;16.10;11.63;;;5.70;99.90;;;;;;5054653;28;20021;-75
2022/12/05 10:37:08;;;;;;;14.07;11.65;;;5.70;99.90;;;;;;5053672;28;20489;-75
2022/12/05 10:39:37;;;;;;;12.10;10.73;;;5.70;99.90;;;;;;5054747;28;20155;-76
2022/12/05 10:42:04;;;;;;;14.02;11.73;;;5.70;99.90;;;;;;5050049;28;20097;-75
2022/12/05 10:44:30;;;;;;;12.15;10.65;;;5.70;99.90;;;;;;5045300;28;20032;-76
2022/12/05 10:46:56;;;;;;;15.55;11.35;;;5.70;99.90;;;;;;5054155;28;20025;-76
2022/12/05 10:49:23;;;;;;;13.50;11.63;;;5.70;99.90;;;;;;5053884;28;20023;-76
2022/12/05 10:51:51;;;;;;;16.40;11.68;;;5.70;99.90;;;;;;5054563;28;20029;-76
2022/12/05 10:54:28;;;;;;;14.07;11.27;;;5.70;99.90;;;;;;5054670;28;20017;-76
2022/12/05 10:56:54;;;;;;;12.63;9.70;;;5.80;99.90;;;;;;5053319;28;20111;-76
2022/12/05 10:59:22;;;;;;;11.55;10.43;;;5.80;99.90;;;;;;5054656;28;20477;-76
2022/12/05 11:01:54;;;;;;;11.40;10.23;;;5.80;99.90;;;;;;5054145;28;20033;-76
2022/12/05 11:04:22;;;;;;;10.48;9.48;;;5.90;99.90;;;;;;5053386;28;20373;-76
2022/12/05 11:07:03;;;;;;;11.90;10.68;;;5.90;99.90;;;;;;5044093;28;20473;-77
2022/12/05 11:09:31;;;;;;;13.38;10.00;;;6.10;99.90;;;;;;5054224;28;20414;-76
2022/12/05 11:12:22;;;;;;;10.50;9.18;;;5.80;99.90;;;;;;5053474;28;20413;-76
2022/12/05 11:14:58;;;;;;;;;;;5.90;99.90;;;;;;5054228;28;20029;-76
2022/12/05 11:17:29;;;;;;;9.50;8.48;;;5.80;99.90;;;;;;5053070;28;19947;-77
2022/12/05 11:19:55;;;;;;;9.35;8.45;;;5.90;99.90;;;;;;5050016;28;20021;-76
2022/12/05 11:22:30;;;;;;;9.23;8.23;;;5.90;99.90;;;;;;5044419;28;20517;-76
2022/12/05 11:24:56;;;;;;;9.10;8.30;;;5.90;99.90;;;;;;5053139;28;20398;-77
2022/12/05 11:27:31;;;;;;;10.68;9.63;;;5.90;99.90;;;;;;5054165;28;20029;-78
2022/12/05 11:29:57;;;;;;;11.25;9.27;;;6.70;99.90;;;;;;5053392;28;20482;-76
2022/12/05 11:32:29;;;;;;;9.85;8.85;;;5.90;99.90;;;;;;5053402;28;20064;-75
2022/12/05 11:35:26;;;;;;;9.32;8.35;;;5.90;99.90;;;;;;5053946;28;20040;-75
2022/12/05 11:37:57;;;;;;;8.98;7.72;;;5.90;99.90;;;;;;5053283;28;20401;-76
2022/12/05 11:40:51;;;;;;;8.75;7.85;;;5.90;99.90;;;;;;5054409;28;20044;-76
2022/12/05 11:43:16;;;;;;;10.23;7.50;;;5.90;99.90;;;;;;5054086;28;20040;-77
2022/12/05 11:46:00;;;;;;;10.20;7.63;;;5.90;99.90;;;;;;5053329;28;20377;-76
2022/12/05 11:48:33;;;;;;;9.13;7.68;;;5.90;99.90;;;;;;5053749;28;20029;-76
2022/12/05 11:51:23;;;;;;;9.82;7.72;;;5.90;99.90;;;;;;5053714;28;20020;-75
2022/12/05 11:53:55;;;;;;;8.38;6.95;;;6.00;99.90;;;;;;5052913;28;20025;-78
2022/12/05 11:56:20;;;;;;;11.52;8.15;;;6.00;99.90;;;;;;5053739;28;20029;-77
2022/12/05 11:59:00;;;;;;;11.68;7.65;;;6.00;99.90;;;;;;5053598;28;20033;-76
2022/12/05 12:01:53;;;;;;;7.68;6.97;;;5.90;99.90;;;;;;5054065;28;20017;-77
2022/12/05 12:04:22;;;;;;;7.85;6.90;;;5.90;99.90;;;;;;5054153;28;20053;-77
2022/12/05 12:06:50;;;;;;;8.48;7.43;;;6.00;99.90;;;;;;5036734;28;20030;-77
2022/12/05 12:09:25;;;;;;;8.20;7.45;;;6.00;99.90;;;;;;5045805;28;20040;-76
2022/12/05 12:12:27;;;;;;;9.75;7.72;;;5.90;99.90;;;;;;5044471;28;20036;-76
2022/12/05 12:15:00;;;;;;;7.35;6.65;;;5.90;99.90;;;;;;5051936;28;20373;-76
2022/12/05 12:17:31;;;;;;;7.85;7.07;;;6.00;99.90;;;;;;5054386;28;20037;-77
2022/12/05 12:20:15;;;;;;;7.38;6.78;;;6.00;99.90;;;;;;5035067;28;20028;-76
2022/12/05 12:23:10;;;;;;;8.93;7.00;;;6.10;99.90;;;;;;5030035;28;20045;-76
2022/12/05 12:25:50;;;;;;;8.40;7.43;;;6.10;99.90;;;;;;5033792;28;20036;-76
2022/12/05 12:28:49;;;;;;;7.45;6.25;;;6.10;99.90;;;;;;5026183;28;20379;-77
2022/12/05 12:31:21;;;;;;;9.30;6.65;;;6.10;99.90;;;;;;5016010;28;20044;-77
2022/12/05 12:34:20;;;;;;;7.38;6.38;;;6.10;99.90;;;;;;5024936;28;20018;-77
2022/12/05 12:37:04;;;;;;;6.57;6.00;;;6.10;99.90;;;;;;5017202;28;20458;-75
2022/12/05 12:39:55;;;;;;;11.07;6.32;;;6.10;99.90;;;;;;5013891;28;20029;-79
2022/12/05 12:42:29;;;;;;;7.35;6.65;;;6.10;99.90;;;;;;5012906;28;20025;-77
2022/12/05 12:45:03;;;;;;;10.02;7.45;;;6.10;99.90;;;;;;5026607;28;20051;-77
2022/12/05 12:47:52;;;;;;;7.70;6.90;;;6.10;99.90;;;;;;5032155;28;20030;-79
2022/12/05 12:50:25;;;;;;;6.95;6.22;;;6.10;99.90;;;;;;5030901;28;20501;-76
2022/12/05 12:53:24;;;;;;;7.35;6.43;;;6.10;99.90;;;;;;5029411;28;20079;-77
2022/12/05 12:56:09;;;;;;;6.72;6.03;;;6.20;99.90;;;;;;5033680;28;20063;-75
2022/12/05 12:59:02;;;;;;;8.27;6.85;;;6.20;99.90;;;;;;5033198;28;20091;-76
2022/12/05 13:01:48;;;;;;;7.15;6.45;;;6.20;99.90;;;;;;5025894;28;20143;-75
2022/12/05 13:04:23;;;;;;;14.50;6.65;;;6.20;99.90;;;;;;5035772;28;20034;-76
2022/12/05 13:06:54;;;;;;;8.27;6.20;;;6.20;99.90;;;;;;5037283;28;20032;-76
2022/12/05 13:09:29;;;;;;;8.25;7.45;;;6.20;99.90;;;;;;5035706;28;20064;-76
2022/12/05 13:12:00;;;;;;;7.78;6.90;;;6.20;99.90;;;;;;5045029;28;20025;-77
2022/12/05 13:14:27;;;;;;;12.13;7.40;;;6.10;99.90;;;;;;5057066;28;20416;-77